KTCS/TCS METAR and TAF weather

Enter ICAO airport designator
Station Type Date Time Source
KTCS METAR 2022/12/08 11:53 UTC NOAA

KTCS 081153Z AUTO 00000KT 10SM CLR 03/01 A3022 RMK AO2 SLP201 T00330006 10083 20033 51000


Station Type Date Time Source
KTCS Decoded METAR 2022/12/08 11:53 UTC NOAA

TRUTH OR CONSEQUENCES MUNI, NM, United States (KTCS) 33-14N 107-16W 1469M
Dec 08, 2022 - 06:53 AM EST / 2022.12.08 1153 UTC
Wind: Calm:0
Visibility: 10 mile(s):0
Sky conditions: clear
Temperature: 37.9 F (3.3 C)
Dew Point: 33.1 F (0.6 C)
Relative Humidity: 82%
Pressure (altimeter): 30.22 in. Hg (1023 hPa)
Pressure tendency: 0.00 inches (0.0 hPa) higher than three hours ago
ob: KTCS 081153Z AUTO 00000KT 10SM CLR 03/01 A3022 RMK AO2 SLP201 T00330006 10083 20033 51000
cycle: 12

Station Type Date Time Source
KTCS TAF 2022/12/08 12:24 UTC NOAA

TAF KTCS 081123Z 0812/0912 32005KT P6SM SKC
FM081800 05006KT P6SM FEW250
FM090000 34006KT P6SM SCT250

Example: see airport list